sensor_id;sensor_type;location;lat;lon;timestamp;P1;durP1;ratioP1;P2;durP2;ratioP2
48987;SDS011;34799;51.440;-2.534;2023-04-24T00:02:08;11.90;;;5.50;;
48987;SDS011;34799;51.440;-2.534;2023-04-24T00:04:37;9.95;;;4.90;;
48987;SDS011;34799;51.440;-2.534;2023-04-24T00:07:07;10.02;;;5.40;;
48987;SDS011;34799;51.440;-2.534;2023-04-24T00:09:35;8.57;;;5.00;;
48987;SDS011;34799;51.440;-2.534;2023-04-24T00:12:02;11.07;;;5.30;;
48987;SDS011;34799;51.440;-2.534;2023-04-24T00:14:31;10.40;;;4.47;;
48987;SDS011;34799;51.440;-2.534;2023-04-24T00:16:59;7.68;;;4.70;;
48987;SDS011;34799;51.440;-2.534;2023-04-24T00:19:26;9.15;;;5.13;;
48987;SDS011;34799;51.440;-2.534;2023-04-24T00:21:54;7.97;;;4.82;;
48987;SDS011;34799;51.440;-2.534;2023-04-24T00:24:21;8.43;;;4.55;;
48987;SDS011;34799;51.440;-2.534;2023-04-24T00:26:48;8.18;;;4.65;;
48987;SDS011;34799;51.440;-2.534;2023-04-24T00:29:15;9.20;;;4.70;;
48987;SDS011;34799;51.440;-2.534;2023-04-24T00:31:42;8.32;;;4.68;;
48987;SDS011;34799;51.440;-2.534;2023-04-24T00:34:11;8.80;;;4.70;;
48987;SDS011;34799;51.440;-2.534;2023-04-24T00:36:39;10.43;;;4.70;;
48987;SDS011;34799;51.440;-2.534;2023-04-24T00:39:06;9.32;;;4.45;;
48987;SDS011;34799;51.440;-2.534;2023-04-24T00:41:37;7.55;;;4.30;;
48987;SDS011;34799;51.440;-2.534;2023-04-24T00:44:05;10.57;;;4.65;;
48987;SDS011;34799;51.440;-2.534;2023-04-24T00:46:32;9.25;;;4.28;;
48987;SDS011;34799;51.440;-2.534;2023-04-24T00:48:59;9.82;;;4.43;;
48987;SDS011;34799;51.440;-2.534;2023-04-24T00:51:27;8.30;;;4.60;;
48987;SDS011;34799;51.440;-2.534;2023-04-24T00:53:54;7.85;;;4.28;;
48987;SDS011;34799;51.440;-2.534;2023-04-24T00:56:21;7.88;;;4.22;;
48987;SDS011;34799;51.440;-2.534;2023-04-24T00:58:49;7.93;;;4.15;;
48987;SDS011;34799;51.440;-2.534;2023-04-24T01:01:21;8.32;;;3.80;;
48987;SDS011;34799;51.440;-2.534;2023-04-24T01:03:50;8.77;;;4.18;;
48987;SDS011;34799;51.440;-2.534;2023-04-24T01:06:20;6.40;;;3.83;;
48987;SDS011;34799;51.440;-2.534;2023-04-24T01:08:48;5.25;;;3.42;;
48987;SDS011;34799;51.440;-2.534;2023-04-24T01:11:16;8.57;;;4.15;;
48987;SDS011;34799;51.440;-2.534;2023-04-24T01:13:44;6.57;;;3.50;;
48987;SDS011;34799;51.440;-2.534;2023-04-24T01:16:14;8.63;;;4.00;;
48987;SDS011;34799;51.440;-2.534;2023-04-24T01:18:43;7.60;;;4.20;;
48987;SDS011;34799;51.440;-2.534;2023-04-24T01:21:10;5.55;;;3.22;;
48987;SDS011;34799;51.440;-2.534;2023-04-24T01:23:43;6.07;;;3.20;;
48987;SDS011;34799;51.440;-2.534;2023-04-24T01:26:11;7.57;;;3.50;;
48987;SDS011;34799;51.440;-2.534;2023-04-24T01:28:40;7.65;;;3.92;;
48987;SDS011;34799;51.440;-2.534;2023-04-24T01:31:08;6.40;;;3.47;;
48987;SDS011;34799;51.440;-2.534;2023-04-24T01:33:36;7.30;;;3.45;;
48987;SDS011;34799;51.440;-2.534;2023-04-24T01:36:03;8.82;;;3.55;;
48987;SDS011;34799;51.440;-2.534;2023-04-24T01:38:31;5.82;;;3.38;;
48987;SDS011;34799;51.440;-2.534;2023-04-24T01:40:58;6.25;;;3.42;;
48987;SDS011;34799;51.440;-2.534;2023-04-24T01:43:26;7.28;;;3.30;;
48987;SDS011;34799;51.440;-2.534;2023-04-24T01:45:55;5.90;;;3.47;;
48987;SDS011;34799;51.440;-2.534;2023-04-24T01:48:22;7.43;;;3.40;;
48987;SDS011;34799;51.440;-2.534;2023-04-24T01:50:49;8.55;;;3.90;;
48987;SDS011;34799;51.440;-2.534;2023-04-24T01:53:16;10.38;;;3.83;;
48987;SDS011;34799;51.440;-2.534;2023-04-24T01:55:43;8.73;;;4.32;;
48987;SDS011;34799;51.440;-2.534;2023-04-24T01:58:12;9.35;;;4.15;;
48987;SDS011;34799;51.440;-2.534;2023-04-24T02:00:40;7.95;;;4.05;;
48987;SDS011;34799;51.440;-2.534;2023-04-24T02:03:08;8.05;;;4.18;;
48987;SDS011;34799;51.440;-2.534;2023-04-24T02:05:35;7.97;;;3.92;;
48987;SDS011;34799;51.440;-2.534;2023-04-24T02:08:02;7.88;;;4.25;;
48987;SDS011;34799;51.440;-2.534;2023-04-24T02:10:29;7.70;;;4.10;;
48987;SDS011;34799;51.440;-2.534;2023-04-24T02:12:57;9.88;;;4.28;;
48987;SDS011;34799;51.440;-2.534;2023-04-24T02:15:27;9.07;;;4.50;;
48987;SDS011;34799;51.440;-2.534;2023-04-24T02:17:56;12.95;;;4.93;;
48987;SDS011;34799;51.440;-2.534;2023-04-24T02:20:23;10.30;;;5.18;;
48987;SDS011;34799;51.440;-2.534;2023-04-24T02:22:52;11.80;;;4.70;;
48987;SDS011;34799;51.440;-2.534;2023-04-24T02:25:19;11.90;;;5.43;;
48987;SDS011;34799;51.440;-2.534;2023-04-24T02:27:47;11.82;;;5.65;;
48987;SDS011;34799;51.440;-2.534;2023-04-24T02:30:15;15.27;;;5.55;;
48987;SDS011;34799;51.440;-2.534;2023-04-24T02:32:42;10.93;;;5.53;;
48987;SDS011;34799;51.440;-2.534;2023-04-24T02:35:09;10.30;;;5.50;;
48987;SDS011;34799;51.440;-2.534;2023-04-24T02:37:37;10.15;;;5.57;;
48987;SDS011;34799;51.440;-2.534;2023-04-24T02:40:04;9.88;;;5.28;;
48987;SDS011;34799;51.440;-2.534;2023-04-24T02:42:32;9.77;;;4.82;;
48987;SDS011;34799;51.440;-2.534;2023-04-24T02:45:00;10.95;;;5.03;;
48987;SDS011;34799;51.440;-2.534;2023-04-24T02:47:27;10.95;;;4.80;;
48987;SDS011;34799;51.440;-2.534;2023-04-24T02:49:54;11.60;;;5.40;;
48987;SDS011;34799;51.440;-2.534;2023-04-24T02:52:21;9.27;;;5.22;;
48987;SDS011;34799;51.440;-2.534;2023-04-24T02:54:48;11.35;;;6.35;;
48987;SDS011;34799;51.440;-2.534;2023-04-24T02:57:16;13.23;;;5.47;;
48987;SDS011;34799;51.440;-2.534;2023-04-24T02:59:43;11.55;;;5.63;;
48987;SDS011;34799;51.440;-2.534;2023-04-24T03:02:10;11.32;;;5.40;;
48987;SDS011;34799;51.440;-2.534;2023-04-24T03:04:39;12.50;;;6.20;;
48987;SDS011;34799;51.440;-2.534;2023-04-24T03:07:06;11.05;;;5.68;;
48987;SDS011;34799;51.440;-2.534;2023-04-24T03:09:34;13.65;;;6.80;;
48987;SDS011;34799;51.440;-2.534;2023-04-24T03:12:01;12.68;;;6.28;;
48987;SDS011;34799;51.440;-2.534;2023-04-24T03:14:28;13.57;;;5.95;;
48987;SDS011;34799;51.440;-2.534;2023-04-24T03:16:58;13.43;;;7.03;;
48987;SDS011;34799;51.440;-2.534;2023-04-24T03:19:26;10.20;;;5.57;;
48987;SDS011;34799;51.440;-2.534;2023-04-24T03:22:02;10.60;;;5.60;;
48987;SDS011;34799;51.440;-2.534;2023-04-24T03:24:30;16.75;;;6.20;;
48987;SDS011;34799;51.440;-2.534;2023-04-24T03:26:57;11.35;;;5.47;;
48987;SDS011;34799;51.440;-2.534;2023-04-24T03:29:51;12.15;;;5.85;;
48987;SDS011;34799;51.440;-2.534;2023-04-24T03:32:32;13.40;;;5.85;;
48987;SDS011;34799;51.440;-2.534;2023-04-24T03:35:00;15.32;;;6.35;;
48987;SDS011;34799;51.440;-2.534;2023-04-24T03:37:28;13.50;;;5.72;;
48987;SDS011;34799;51.440;-2.534;2023-04-24T03:40:09;11.43;;;6.03;;
48987;SDS011;34799;51.440;-2.534;2023-04-24T03:42:37;14.07;;;5.72;;
48987;SDS011;34799;51.440;-2.534;2023-04-24T03:45:05;11.63;;;5.82;;
48987;SDS011;34799;51.440;-2.534;2023-04-24T03:47:36;11.15;;;5.38;;
48987;SDS011;34799;51.440;-2.534;2023-04-24T03:50:04;10.43;;;5.03;;
48987;SDS011;34799;51.440;-2.534;2023-04-24T03:52:32;11.30;;;5.43;;
48987;SDS011;34799;51.440;-2.534;2023-04-24T03:54:59;13.27;;;5.20;;
48987;SDS011;34799;51.440;-2.534;2023-04-24T03:57:30;12.88;;;5.65;;
48987;SDS011;34799;51.440;-2.534;2023-04-24T04:00:15;10.73;;;5.55;;
48987;SDS011;34799;51.440;-2.534;2023-04-24T04:02:46;11.43;;;5.70;;
48987;SDS011;34799;51.440;-2.534;2023-04-24T04:05:13;12.63;;;5.88;;
48987;SDS011;34799;51.440;-2.534;2023-04-24T04:07:42;11.85;;;5.32;;
48987;SDS011;34799;51.440;-2.534;2023-04-24T04:10:09;9.88;;;5.70;;
48987;SDS011;34799;51.440;-2.534;2023-04-24T04:12:36;11.85;;;6.63;;
48987;SDS011;34799;51.440;-2.534;2023-04-24T04:15:03;13.65;;;5.78;;
48987;SDS011;34799;51.440;-2.534;2023-04-24T04:17:32;9.70;;;5.43;;
48987;SDS011;34799;51.440;-2.534;2023-04-24T04:20:02;10.60;;;5.95;;
48987;SDS011;34799;51.440;-2.534;2023-04-24T04:22:34;10.82;;;5.32;;
48987;SDS011;34799;51.440;-2.534;2023-04-24T04:25:06;11.55;;;5.78;;
48987;SDS011;34799;51.440;-2.534;2023-04-24T04:27:35;10.88;;;5.18;;
48987;SDS011;34799;51.440;-2.534;2023-04-24T04:30:08;11.65;;;5.85;;
48987;SDS011;34799;51.440;-2.534;2023-04-24T04:32:58;12.57;;;6.38;;
48987;SDS011;34799;51.440;-2.534;2023-04-24T04:35:26;10.95;;;5.88;;
48987;SDS011;34799;51.440;-2.534;2023-04-24T04:37:54;12.93;;;6.18;;
48987;SDS011;34799;51.440;-2.534;2023-04-24T04:40:26;9.73;;;5.40;;
48987;SDS011;34799;51.440;-2.534;2023-04-24T04:43:00;10.98;;;5.22;;
48987;SDS011;34799;51.440;-2.534;2023-04-24T04:45:34;12.73;;;5.40;;
48987;SDS011;34799;51.440;-2.534;2023-04-24T04:48:22;10.23;;;6.10;;
48987;SDS011;34799;51.440;-2.534;2023-04-24T04:50:50;13.63;;;5.78;;
48987;SDS011;34799;51.440;-2.534;2023-04-24T04:53:19;13.43;;;6.00;;
48987;SDS011;34799;51.440;-2.534;2023-04-24T04:55:46;12.93;;;6.28;;
48987;SDS011;34799;51.440;-2.534;2023-04-24T04:58:16;11.80;;;5.70;;
48987;SDS011;34799;51.440;-2.534;2023-04-24T05:00:44;10.38;;;5.65;;
48987;SDS011;34799;51.440;-2.534;2023-04-24T05:03:17;9.68;;;5.85;;
48987;SDS011;34799;51.440;-2.534;2023-04-24T05:05:47;10.90;;;5.57;;
48987;SDS011;34799;51.440;-2.534;2023-04-24T05:08:17;13.35;;;5.93;;
48987;SDS011;34799;51.440;-2.534;2023-04-24T05:10:53;11.63;;;6.00;;
48987;SDS011;34799;51.440;-2.534;2023-04-24T05:13:21;11.35;;;5.90;;
48987;SDS011;34799;51.440;-2.534;2023-04-24T05:15:55;11.45;;;6.22;;
48987;SDS011;34799;51.440;-2.534;2023-04-24T05:18:23;12.13;;;6.25;;
48987;SDS011;34799;51.440;-2.534;2023-04-24T05:20:50;11.25;;;6.13;;
48987;SDS011;34799;51.440;-2.534;2023-04-24T05:23:17;9.60;;;5.93;;
48987;SDS011;34799;51.440;-2.534;2023-04-24T05:25:49;11.27;;;6.13;;
48987;SDS011;34799;51.440;-2.534;2023-04-24T05:28:16;15.48;;;6.93;;
48987;SDS011;34799;51.440;-2.534;2023-04-24T05:30:49;12.45;;;6.38;;
48987;SDS011;34799;51.440;-2.534;2023-04-24T05:33:19;14.75;;;6.50;;
48987;SDS011;34799;51.440;-2.534;2023-04-24T05:35:46;12.13;;;6.07;;
48987;SDS011;34799;51.440;-2.534;2023-04-24T05:38:13;12.45;;;5.75;;
48987;SDS011;34799;51.440;-2.534;2023-04-24T05:40:45;12.60;;;5.88;;
48987;SDS011;34799;51.440;-2.534;2023-04-24T05:43:12;10.82;;;6.40;;
48987;SDS011;34799;51.440;-2.534;2023-04-24T05:45:39;13.07;;;6.03;;
48987;SDS011;34799;51.440;-2.534;2023-04-24T05:48:06;15.00;;;6.57;;
48987;SDS011;34799;51.440;-2.534;2023-04-24T05:50:34;12.43;;;6.28;;
48987;SDS011;34799;51.440;-2.534;2023-04-24T05:53:02;14.85;;;6.82;;
48987;SDS011;34799;51.440;-2.534;2023-04-24T05:55:33;12.63;;;6.90;;
48987;SDS011;34799;51.440;-2.534;2023-04-24T05:58:00;14.13;;;7.43;;
48987;SDS011;34799;51.440;-2.534;2023-04-24T06:00:28;12.60;;;7.22;;
48987;SDS011;34799;51.440;-2.534;2023-04-24T06:03:02;13.25;;;6.72;;
48987;SDS011;34799;51.440;-2.534;2023-04-24T06:05:30;14.70;;;6.82;;
48987;SDS011;34799;51.440;-2.534;2023-04-24T06:07:57;13.32;;;6.93;;
48987;SDS011;34799;51.440;-2.534;2023-04-24T06:10:31;12.20;;;6.88;;
48987;SDS011;34799;51.440;-2.534;2023-04-24T06:12:58;12.77;;;6.53;;
48987;SDS011;34799;51.440;-2.534;2023-04-24T06:15:30;12.60;;;6.70;;
48987;SDS011;34799;51.440;-2.534;2023-04-24T06:18:05;11.48;;;6.22;;
48987;SDS011;34799;51.440;-2.534;2023-04-24T06:20:32;12.75;;;6.18;;
48987;SDS011;34799;51.440;-2.534;2023-04-24T06:23:01;13.30;;;6.07;;
48987;SDS011;34799;51.440;-2.534;2023-04-24T06:25:28;11.82;;;5.97;;
48987;SDS011;34799;51.440;-2.534;2023-04-24T06:27:56;13.65;;;6.28;;
48987;SDS011;34799;51.440;-2.534;2023-04-24T06:30:24;12.98;;;6.70;;
48987;SDS011;34799;51.440;-2.534;2023-04-24T06:32:51;11.85;;;5.68;;
48987;SDS011;34799;51.440;-2.534;2023-04-24T06:35:18;13.20;;;6.15;;
48987;SDS011;34799;51.440;-2.534;2023-04-24T06:37:45;16.33;;;8.10;;
48987;SDS011;34799;51.440;-2.534;2023-04-24T06:40:13;11.10;;;6.38;;
48987;SDS011;34799;51.440;-2.534;2023-04-24T06:42:40;14.00;;;7.05;;
48987;SDS011;34799;51.440;-2.534;2023-04-24T06:45:09;14.75;;;6.78;;
48987;SDS011;34799;51.440;-2.534;2023-04-24T06:47:36;12.07;;;6.80;;
48987;SDS011;34799;51.440;-2.534;2023-04-24T06:50:04;14.00;;;7.47;;
48987;SDS011;34799;51.440;-2.534;2023-04-24T06:52:32;13.68;;;7.18;;
48987;SDS011;34799;51.440;-2.534;2023-04-24T06:55:03;10.60;;;5.75;;
48987;SDS011;34799;51.440;-2.534;2023-04-24T06:57:31;12.75;;;6.32;;
48987;SDS011;34799;51.440;-2.534;2023-04-24T06:59:58;13.55;;;6.75;;
48987;SDS011;34799;51.440;-2.534;2023-04-24T07:02:25;11.50;;;6.28;;
48987;SDS011;34799;51.440;-2.534;2023-04-24T07:04:52;14.63;;;6.30;;
48987;SDS011;34799;51.440;-2.534;2023-04-24T07:07:20;9.13;;;6.18;;
48987;SDS011;34799;51.440;-2.534;2023-04-24T07:09:49;11.15;;;5.97;;
48987;SDS011;34799;51.440;-2.534;2023-04-24T07:12:17;13.32;;;6.75;;
48987;SDS011;34799;51.440;-2.534;2023-04-24T07:14:47;13.52;;;6.18;;
48987;SDS011;34799;51.440;-2.534;2023-04-24T07:17:14;15.85;;;6.47;;
48987;SDS011;34799;51.440;-2.534;2023-04-24T07:19:43;9.95;;;5.97;;
48987;SDS011;34799;51.440;-2.534;2023-04-24T07:22:10;11.48;;;6.18;;
48987;SDS011;34799;51.440;-2.534;2023-04-24T07:24:44;9.02;;;6.07;;
48987;SDS011;34799;51.440;-2.534;2023-04-24T07:27:11;11.38;;;5.80;;
48987;SDS011;34799;51.440;-2.534;2023-04-24T07:29:41;14.15;;;6.45;;
48987;SDS011;34799;51.440;-2.534;2023-04-24T07:32:08;12.15;;;6.57;;
48987;SDS011;34799;51.440;-2.534;2023-04-24T07:34:35;10.20;;;6.03;;
48987;SDS011;34799;51.440;-2.534;2023-04-24T07:37:03;15.48;;;6.15;;
48987;SDS011;34799;51.440;-2.534;2023-04-24T07:39:31;13.25;;;6.00;;
48987;SDS011;34799;51.440;-2.534;2023-04-24T07:41:58;11.02;;;5.70;;
48987;SDS011;34799;51.440;-2.534;2023-04-24T07:44:26;8.38;;;5.40;;
48987;SDS011;34799;51.440;-2.534;2023-04-24T07:46:53;9.93;;;5.88;;
48987;SDS011;34799;51.440;-2.534;2023-04-24T07:49:20;10.77;;;5.95;;
48987;SDS011;34799;51.440;-2.534;2023-04-24T07:51:47;8.65;;;5.05;;
48987;SDS011;34799;51.440;-2.534;2023-04-24T07:54:17;12.00;;;5.70;;
48987;SDS011;34799;51.440;-2.534;2023-04-24T07:56:44;10.90;;;5.95;;
48987;SDS011;34799;51.440;-2.534;2023-04-24T07:59:11;11.23;;;5.97;;
48987;SDS011;34799;51.440;-2.534;2023-04-24T08:01:38;11.43;;;6.18;;
48987;SDS011;34799;51.440;-2.534;2023-04-24T08:04:05;12.00;;;5.50;;
48987;SDS011;34799;51.440;-2.534;2023-04-24T08:06:32;10.90;;;5.70;;
48987;SDS011;34799;51.440;-2.534;2023-04-24T08:08:59;11.38;;;5.63;;
48987;SDS011;34799;51.440;-2.534;2023-04-24T08:11:27;8.45;;;4.45;;
48987;SDS011;34799;51.440;-2.534;2023-04-24T08:13:55;12.25;;;5.32;;
48987;SDS011;34799;51.440;-2.534;2023-04-24T08:16:22;8.27;;;3.90;;
48987;SDS011;34799;51.440;-2.534;2023-04-24T08:18:52;10.38;;;3.92;;
48987;SDS011;34799;51.440;-2.534;2023-04-24T08:21:19;7.32;;;3.80;;
48987;SDS011;34799;51.440;-2.534;2023-04-24T08:23:47;5.68;;;3.20;;
48987;SDS011;34799;51.440;-2.534;2023-04-24T08:26:16;6.72;;;2.78;;
48987;SDS011;34799;51.440;-2.534;2023-04-24T08:28:43;9.50;;;3.65;;
48987;SDS011;34799;51.440;-2.534;2023-04-24T08:31:10;6.32;;;3.92;;
48987;SDS011;34799;51.440;-2.534;2023-04-24T08:33:37;5.78;;;3.28;;
48987;SDS011;34799;51.440;-2.534;2023-04-24T08:36:04;6.65;;;3.60;;
48987;SDS011;34799;51.440;-2.534;2023-04-24T08:38:32;13.15;;;4.53;;
48987;SDS011;34799;51.440;-2.534;2023-04-24T08:41:01;9.73;;;3.92;;
48987;SDS011;34799;51.440;-2.534;2023-04-24T08:43:30;7.13;;;4.00;;
48987;SDS011;34799;51.440;-2.534;2023-04-24T08:46:04;8.40;;;4.68;;
48987;SDS011;34799;51.440;-2.534;2023-04-24T08:48:32;9.40;;;4.85;;
48987;SDS011;34799;51.440;-2.534;2023-04-24T08:51:00;8.27;;;4.95;;
48987;SDS011;34799;51.440;-2.534;2023-04-24T08:53:28;8.95;;;4.72;;
48987;SDS011;34799;51.440;-2.534;2023-04-24T08:55:57;9.00;;;5.07;;
48987;SDS011;34799;51.440;-2.534;2023-04-24T08:58:25;7.57;;;4.80;;
48987;SDS011;34799;51.440;-2.534;2023-04-24T09:00:56;6.90;;;4.97;;
48987;SDS011;34799;51.440;-2.534;2023-04-24T09:03:26;7.50;;;5.07;;
48987;SDS011;34799;51.440;-2.534;2023-04-24T09:05:54;8.70;;;5.20;;
48987;SDS011;34799;51.440;-2.534;2023-04-24T09:08:23;8.15;;;5.03;;
48987;SDS011;34799;51.440;-2.534;2023-04-24T09:10:53;7.85;;;4.30;;
48987;SDS011;34799;51.440;-2.534;2023-04-24T09:13:20;10.45;;;5.07;;
48987;SDS011;34799;51.440;-2.534;2023-04-24T09:15:48;9.63;;;4.82;;
48987;SDS011;34799;51.440;-2.534;2023-04-24T09:18:15;8.23;;;5.10;;
48987;SDS011;34799;51.440;-2.534;2023-04-24T09:23:32;8.77;;;4.68;;
48987;SDS011;34799;51.440;-2.534;2023-04-24T09:25:59;7.43;;;4.88;;
48987;SDS011;34799;51.440;-2.534;2023-04-24T09:28:32;10.10;;;4.70;;
48987;SDS011;34799;51.440;-2.534;2023-04-24T09:31:06;10.73;;;5.60;;
48987;SDS011;34799;51.440;-2.534;2023-04-24T09:33:35;13.45;;;5.30;;
48987;SDS011;34799;51.440;-2.534;2023-04-24T09:36:03;8.32;;;5.13;;
48987;SDS011;34799;51.440;-2.534;2023-04-24T09:38:34;12.55;;;5.22;;
48987;SDS011;34799;51.440;-2.534;2023-04-24T09:41:07;9.52;;;4.65;;
48987;SDS011;34799;51.440;-2.534;2023-04-24T09:43:36;9.35;;;5.20;;
48987;SDS011;34799;51.440;-2.534;2023-04-24T09:46:07;9.07;;;4.60;;
48987;SDS011;34799;51.440;-2.534;2023-04-24T09:48:38;9.98;;;5.38;;
48987;SDS011;34799;51.440;-2.534;2023-04-24T09:51:06;8.32;;;4.93;;
48987;SDS011;34799;51.440;-2.534;2023-04-24T09:53:33;8.63;;;4.85;;
48987;SDS011;34799;51.440;-2.534;2023-04-24T09:56:08;8.68;;;5.05;;
48987;SDS011;34799;51.440;-2.534;2023-04-24T09:58:36;11.63;;;6.40;;
48987;SDS011;34799;51.440;-2.534;2023-04-24T10:01:03;20.30;;;9.02;;
48987;SDS011;34799;51.440;-2.534;2023-04-24T10:03:31;14.95;;;7.65;;
48987;SDS011;34799;51.440;-2.534;2023-04-24T10:06:00;13.13;;;7.07;;
48987;SDS011;34799;51.440;-2.534;2023-04-24T10:08:36;14.95;;;7.80;;
48987;SDS011;34799;51.440;-2.534;2023-04-24T10:11:03;13.05;;;7.25;;
48987;SDS011;34799;51.440;-2.534;2023-04-24T10:13:31;15.27;;;7.80;;
48987;SDS011;34799;51.440;-2.534;2023-04-24T10:15:59;11.52;;;6.88;;
48987;SDS011;34799;51.440;-2.534;2023-04-24T10:18:28;12.07;;;6.75;;
48987;SDS011;34799;51.440;-2.534;2023-04-24T10:20:56;13.25;;;7.78;;
48987;SDS011;34799;51.440;-2.534;2023-04-24T10:23:27;14.38;;;7.93;;
48987;SDS011;34799;51.440;-2.534;2023-04-24T10:25:57;12.98;;;7.13;;
48987;SDS011;34799;51.440;-2.534;2023-04-24T10:28:25;14.15;;;8.10;;
48987;SDS011;34799;51.440;-2.534;2023-04-24T10:30:54;13.40;;;6.70;;
48987;SDS011;34799;51.440;-2.534;2023-04-24T10:33:21;12.90;;;6.85;;
48987;SDS011;34799;51.440;-2.534;2023-04-24T10:35:50;15.32;;;7.20;;
48987;SDS011;34799;51.440;-2.534;2023-04-24T10:38:21;11.15;;;7.00;;
48987;SDS011;34799;51.440;-2.534;2023-04-24T10:40:57;13.60;;;6.90;;
48987;SDS011;34799;51.440;-2.534;2023-04-24T10:43:34;15.82;;;7.30;;
48987;SDS011;34799;51.440;-2.534;2023-04-24T10:46:03;12.35;;;6.80;;
48987;SDS011;34799;51.440;-2.534;2023-04-24T10:48:32;10.77;;;6.50;;
48987;SDS011;34799;51.440;-2.534;2023-04-24T10:50:59;14.57;;;6.70;;
48987;SDS011;34799;51.440;-2.534;2023-04-24T10:53:28;13.30;;;6.97;;
48987;SDS011;34799;51.440;-2.534;2023-04-24T10:55:58;15.20;;;6.65;;
48987;SDS011;34799;51.440;-2.534;2023-04-24T10:58:43;12.48;;;6.28;;
48987;SDS011;34799;51.440;-2.534;2023-04-24T11:01:26;12.15;;;5.45;;
48987;SDS011;34799;51.440;-2.534;2023-04-24T11:03:56;11.32;;;6.47;;
48987;SDS011;34799;51.440;-2.534;2023-04-24T11:06:34;12.48;;;6.57;;
48987;SDS011;34799;51.440;-2.534;2023-04-24T11:09:03;14.23;;;6.57;;
48987;SDS011;34799;51.440;-2.534;2023-04-24T11:11:35;12.15;;;6.57;;
48987;SDS011;34799;51.440;-2.534;2023-04-24T11:14:07;14.20;;;6.40;;
48987;SDS011;34799;51.440;-2.534;2023-04-24T11:16:35;8.82;;;5.65;;
48987;SDS011;34799;51.440;-2.534;2023-04-24T11:19:08;9.27;;;5.95;;
48987;SDS011;34799;51.440;-2.534;2023-04-24T11:21:54;10.00;;;5.60;;
48987;SDS011;34799;51.440;-2.534;2023-04-24T11:24:32;9.48;;;5.05;;
48987;SDS011;34799;51.440;-2.534;2023-04-24T11:29:38;7.32;;;4.28;;
48987;SDS011;34799;51.440;-2.534;2023-04-24T11:32:15;9.57;;;4.95;;
48987;SDS011;34799;51.440;-2.534;2023-04-24T11:34:49;6.72;;;3.85;;
48987;SDS011;34799;51.440;-2.534;2023-04-24T11:37:18;6.47;;;4.30;;
48987;SDS011;34799;51.440;-2.534;2023-04-24T11:39:45;8.10;;;4.47;;
48987;SDS011;34799;51.440;-2.534;2023-04-24T11:42:14;9.50;;;4.57;;
48987;SDS011;34799;51.440;-2.534;2023-04-24T11:44:42;6.05;;;3.92;;
48987;SDS011;34799;51.440;-2.534;2023-04-24T11:47:09;5.95;;;3.95;;
48987;SDS011;34799;51.440;-2.534;2023-04-24T11:49:37;8.25;;;4.10;;
48987;SDS011;34799;51.440;-2.534;2023-04-24T11:52:04;7.30;;;3.88;;
48987;SDS011;34799;51.440;-2.534;2023-04-24T11:54:32;5.30;;;3.28;;
48987;SDS011;34799;51.440;-2.534;2023-04-24T11:57:03;5.00;;;3.10;;
48987;SDS011;34799;51.440;-2.534;2023-04-24T11:59:36;4.40;;;2.90;;
48987;SDS011;34799;51.440;-2.534;2023-04-24T12:02:04;6.30;;;3.25;;
48987;SDS011;34799;51.440;-2.534;2023-04-24T12:04:39;6.75;;;2.97;;
48987;SDS011;34799;51.440;-2.534;2023-04-24T12:07:07;5.55;;;2.75;;
48987;SDS011;34799;51.440;-2.534;2023-04-24T12:09:41;6.57;;;3.05;;
48987;SDS011;34799;51.440;-2.534;2023-04-24T12:12:09;5.85;;;3.10;;
48987;SDS011;34799;51.440;-2.534;2023-04-24T12:14:46;4.88;;;3.22;;
48987;SDS011;34799;51.440;-2.534;2023-04-24T12:17:23;8.60;;;3.72;;
48987;SDS011;34799;51.440;-2.534;2023-04-24T12:19:56;5.47;;;3.53;;
48987;SDS011;34799;51.440;-2.534;2023-04-24T12:22:51;7.60;;;3.85;;
48987;SDS011;34799;51.440;-2.534;2023-04-24T12:25:27;5.03;;;3.13;;
48987;SDS011;34799;51.440;-2.534;2023-04-24T12:30:35;5.20;;;2.80;;
48987;SDS011;34799;51.440;-2.534;2023-04-24T12:33:11;7.60;;;2.70;;
48987;SDS011;34799;51.440;-2.534;2023-04-24T12:35:39;5.55;;;2.88;;
48987;SDS011;34799;51.440;-2.534;2023-04-24T12:38:09;7.57;;;3.42;;
48987;SDS011;34799;51.440;-2.534;2023-04-24T12:40:39;5.32;;;3.03;;
48987;SDS011;34799;51.440;-2.534;2023-04-24T12:43:14;6.13;;;3.50;;
48987;SDS011;34799;51.440;-2.534;2023-04-24T12:45:47;6.25;;;3.72;;
48987;SDS011;34799;51.440;-2.534;2023-04-24T12:48:14;5.93;;;3.58;;
48987;SDS011;34799;51.440;-2.534;2023-04-24T12:50:42;5.57;;;3.58;;
48987;SDS011;34799;51.440;-2.534;2023-04-24T12:53:12;7.72;;;4.78;;
48987;SDS011;34799;51.440;-2.534;2023-04-24T12:55:39;10.43;;;5.00;;
48987;SDS011;34799;51.440;-2.534;2023-04-24T12:58:06;6.47;;;3.28;;
48987;SDS011;34799;51.440;-2.534;2023-04-24T13:00:34;6.35;;;3.38;;
48987;SDS011;34799;51.440;-2.534;2023-04-24T13:03:01;7.63;;;3.45;;
48987;SDS011;34799;51.440;-2.534;2023-04-24T13:05:28;5.50;;;2.97;;
48987;SDS011;34799;51.440;-2.534;2023-04-24T13:07:57;5.35;;;3.05;;
48987;SDS011;34799;51.440;-2.534;2023-04-24T13:10:24;7.60;;;3.67;;
48987;SDS011;34799;51.440;-2.534;2023-04-24T13:12:51;5.70;;;3.13;;
48987;SDS011;34799;51.440;-2.534;2023-04-24T13:15:18;5.72;;;3.15;;
48987;SDS011;34799;51.440;-2.534;2023-04-24T13:17:46;6.70;;;3.47;;
48987;SDS011;34799;51.440;-2.534;2023-04-24T13:20:13;6.22;;;3.65;;
48987;SDS011;34799;51.440;-2.534;2023-04-24T13:22:40;6.53;;;3.50;;
48987;SDS011;34799;51.440;-2.534;2023-04-24T13:25:07;7.95;;;4.35;;
48987;SDS011;34799;51.440;-2.534;2023-04-24T13:27:38;5.38;;;3.63;;
48987;SDS011;34799;51.440;-2.534;2023-04-24T13:30:06;5.88;;;4.03;;
48987;SDS011;34799;51.440;-2.534;2023-04-24T13:32:33;5.47;;;3.70;;
48987;SDS011;34799;51.440;-2.534;2023-04-24T13:35:01;6.45;;;4.05;;
48987;SDS011;34799;51.440;-2.534;2023-04-24T13:37:31;9.75;;;4.55;;
48987;SDS011;34799;51.440;-2.534;2023-04-24T13:39:58;8.77;;;3.70;;
48987;SDS011;34799;51.440;-2.534;2023-04-24T13:42:25;6.35;;;3.40;;
48987;SDS011;34799;51.440;-2.534;2023-04-24T13:44:52;4.45;;;2.83;;
48987;SDS011;34799;51.440;-2.534;2023-04-24T13:47:20;5.13;;;3.33;;
48987;SDS011;34799;51.440;-2.534;2023-04-24T13:49:47;5.35;;;2.80;;
48987;SDS011;34799;51.440;-2.534;2023-04-24T13:52:15;6.88;;;3.22;;
48987;SDS011;34799;51.440;-2.534;2023-04-24T13:54:43;4.30;;;2.67;;
48987;SDS011;34799;51.440;-2.534;2023-04-24T13:57:10;5.60;;;2.65;;
48987;SDS011;34799;51.440;-2.534;2023-04-24T13:59:37;5.10;;;2.35;;
48987;SDS011;34799;51.440;-2.534;2023-04-24T14:02:04;4.30;;;2.53;;
48987;SDS011;34799;51.440;-2.534;2023-04-24T14:04:32;4.50;;;2.15;;
48987;SDS011;34799;51.440;-2.534;2023-04-24T14:06:59;5.93;;;2.97;;
48987;SDS011;34799;51.440;-2.534;2023-04-24T14:09:26;4.78;;;3.42;;
48987;SDS011;34799;51.440;-2.534;2023-04-24T14:11:54;3.85;;;2.17;;
48987;SDS011;34799;51.440;-2.534;2023-04-24T14:14:22;6.90;;;2.85;;
48987;SDS011;34799;51.440;-2.534;2023-04-24T14:16:49;5.40;;;2.50;;
48987;SDS011;34799;51.440;-2.534;2023-04-24T14:19:16;5.32;;;2.80;;
48987;SDS011;34799;51.440;-2.534;2023-04-24T14:21:43;7.20;;;2.53;;
48987;SDS011;34799;51.440;-2.534;2023-04-24T14:24:10;4.90;;;2.60;;
48987;SDS011;34799;51.440;-2.534;2023-04-24T14:26:37;6.13;;;2.53;;
48987;SDS011;34799;51.440;-2.534;2023-04-24T14:29:04;3.67;;;1.90;;
48987;SDS011;34799;51.440;-2.534;2023-04-24T14:31:36;5.65;;;2.08;;
48987;SDS011;34799;51.440;-2.534;2023-04-24T14:34:03;6.60;;;2.60;;
48987;SDS011;34799;51.440;-2.534;2023-04-24T14:36:30;3.28;;;2.15;;
48987;SDS011;34799;51.440;-2.534;2023-04-24T14:38:58;5.00;;;2.30;;
48987;SDS011;34799;51.440;-2.534;2023-04-24T14:41:27;4.30;;;2.00;;
48987;SDS011;34799;51.440;-2.534;2023-04-24T14:43:54;5.68;;;2.30;;
48987;SDS011;34799;51.440;-2.534;2023-04-24T14:46:21;4.88;;;2.40;;
48987;SDS011;34799;51.440;-2.534;2023-04-24T14:48:48;4.20;;;1.83;;